CPA951 ZSQD-VHHH
Flight info
| Callsign | CPA951 |
|---|---|
| Flight time | 2h 45m |
| Altitude | 33100 |
| Route | LAT81D LATUX W108 MATNU/K0887S0980 W115 PINOT W13 HSN/K0880S1010 W13 TOGUG/K0876S1040 W13 BEGMO M503 TOLAK/N0473F341 M503 LELIM/N0470F300 V591 ABBEY |
| Aircraft | A21N/M-SDE2E3FGHIRWXY/LB1 |
Departure
| Time | 2026-04-14 00:50 |
|---|---|
| Airport | Qingdao Jiaodong International Airport (ZSQD) |
Arrival
| Time | 2026-04-14 03:35 |
|---|---|
| Airport | Hong Kong International Airport (VHHH) |
| Time | Latitude | Longitude | Altitude | Speed | Heading |
|---|---|---|---|---|---|
| 2026-04-14 00:21 | 36.36190 | 120.09261 | 49 ft | 0 kts | 193° |
| 2026-04-14 00:37 | 36.36198 | 120.09264 | 48 ft | 3 kts | 186° |
| 2026-04-14 00:38 | 36.36217 | 120.09263 | 42 ft | 3 kts | 156° |
| 2026-04-14 00:38 | 36.36231 | 120.09250 | 41 ft | 4 kts | 122° |
| 2026-04-14 00:38 | 36.36239 | 120.09227 | 45 ft | 4 kts | 105° |
| 2026-04-14 00:38 | 36.36242 | 120.09214 | 44 ft | 3 kts | 102° |
| 2026-04-14 00:42 | 36.36241 | 120.09220 | 44 ft | 3 kts | 102° |
| 2026-04-14 00:42 | 36.36228 | 120.09286 | 41 ft | 15 kts | 103° |
| 2026-04-14 00:43 | 36.36198 | 120.09445 | 43 ft | 20 kts | 102° |
| 2026-04-14 00:43 | 36.36188 | 120.09621 | 42 ft | 21 kts | 79° |
| 2026-04-14 00:43 | 36.36231 | 120.09796 | 37 ft | 22 kts | 73° |
| 2026-04-14 00:43 | 36.36170 | 120.09876 | 38 ft | 0 kts | 171° |
| 2026-04-14 00:44 | 36.36171 | 120.09876 | 38 ft | 0 kts | 171° |
| 2026-04-14 00:45 | 36.36170 | 120.09876 | 38 ft | 1 kts | 171° |
| 2026-04-14 00:46 | 36.36159 | 120.09878 | 39 ft | 3 kts | 172° |
| 2026-04-14 00:46 | 36.36134 | 120.09882 | 39 ft | 5 kts | 170° |
| 2026-04-14 00:46 | 36.36094 | 120.09895 | 40 ft | 7 kts | 162° |
| 2026-04-14 00:46 | 36.36041 | 120.09916 | 41 ft | 10 kts | 162° |
| 2026-04-14 00:47 | 36.35959 | 120.09948 | 42 ft | 15 kts | 162° |
| 2026-04-14 00:47 | 36.35843 | 120.09994 | 45 ft | 22 kts | 162° |
| 2026-04-14 00:47 | 36.35683 | 120.10059 | 44 ft | 25 kts | 162° |
| 2026-04-14 00:47 | 36.35517 | 120.10125 | 42 ft | 25 kts | 162° |
| 2026-04-14 00:48 | 36.35346 | 120.10192 | 39 ft | 26 kts | 162° |
| 2026-04-14 00:48 | 36.35170 | 120.10258 | 39 ft | 27 kts | 163° |
| 2026-04-14 00:48 | 36.35019 | 120.10317 | 37 ft | 18 kts | 162° |
| 2026-04-14 00:48 | 36.34988 | 120.10435 | 40 ft | 18 kts | 56° |
| 2026-04-14 00:49 | 36.35177 | 120.10480 | 40 ft | 13 kts | 341° |
| 2026-04-14 00:49 | 36.35295 | 120.10432 | 40 ft | 39 kts | 342° |
| 2026-04-14 00:49 | 36.35779 | 120.10239 | 43 ft | 105 kts | 342° |
| 2026-04-14 00:50 | 36.36739 | 120.09865 | 40 ft | 163 kts | 342° |
| 2026-04-14 00:50 | 36.37737 | 120.09477 | 200 ft | 184 kts | 343° |
| 2026-04-14 00:50 | 36.38930 | 120.09015 | 908 ft | 178 kts | 342° |
| 2026-04-14 00:50 | 36.40106 | 120.08525 | 1585 ft | 182 kts | 342° |
| 2026-04-14 00:51 | 36.41376 | 120.07992 | 1978 ft | 203 kts | 343° |
| 2026-04-14 00:51 | 36.42815 | 120.07644 | 2429 ft | 221 kts | 7° |
| 2026-04-14 00:51 | 36.44307 | 120.08359 | 2761 ft | 239 kts | 39° |
| 2026-04-14 00:51 | 36.45382 | 120.09879 | 3657 ft | 237 kts | 67° |
| 2026-04-14 00:52 | 36.45608 | 120.11899 | 4277 ft | 242 kts | 103° |
| 2026-04-14 00:52 | 36.44840 | 120.13719 | 5076 ft | 243 kts | 130° |
| 2026-04-14 00:52 | 36.43515 | 120.15011 | 5714 ft | 250 kts | 149° |
| 2026-04-14 00:52 | 36.41981 | 120.16050 | 6382 ft | 251 kts | 151° |
| 2026-04-14 00:53 | 36.40412 | 120.17092 | 7030 ft | 254 kts | 150° |
| 2026-04-14 00:53 | 36.38859 | 120.18153 | 7642 ft | 255 kts | 150° |
| 2026-04-14 00:53 | 36.37330 | 120.19222 | 8278 ft | 255 kts | 149° |
| 2026-04-14 00:53 | 36.35785 | 120.20319 | 8962 ft | 257 kts | 149° |
| 2026-04-14 00:54 | 36.34226 | 120.21437 | 9753 ft | 260 kts | 149° |
| 2026-04-14 00:54 | 36.32652 | 120.22571 | 10475 ft | 263 kts | 149° |
| 2026-04-14 00:54 | 36.31073 | 120.23715 | 11157 ft | 267 kts | 149° |
| 2026-04-14 00:54 | 36.29454 | 120.24891 | 11826 ft | 272 kts | 150° |
| 2026-04-14 00:55 | 36.27775 | 120.26050 | 12359 ft | 284 kts | 152° |
| 2026-04-14 00:55 | 36.25972 | 120.27236 | 12673 ft | 303 kts | 153° |
| 2026-04-14 00:55 | 36.24044 | 120.28489 | 12956 ft | 323 kts | 153° |
| 2026-04-14 00:55 | 36.21993 | 120.29820 | 13233 ft | 343 kts | 153° |
| 2026-04-14 00:56 | 36.19820 | 120.31226 | 13492 ft | 361 kts | 153° |
| 2026-04-14 00:56 | 36.17540 | 120.32699 | 13754 ft | 378 kts | 153° |
| 2026-04-14 00:56 | 36.15159 | 120.34239 | 13977 ft | 394 kts | 153° |
| 2026-04-14 00:56 | 36.12685 | 120.35840 | 14174 ft | 408 kts | 153° |
| 2026-04-14 00:57 | 36.10125 | 120.37495 | 14370 ft | 420 kts | 153° |
| 2026-04-14 00:57 | 36.07520 | 120.39181 | 14710 ft | 426 kts | 153° |
| 2026-04-14 00:57 | 36.04885 | 120.40888 | 15154 ft | 430 kts | 153° |
| 2026-04-14 00:57 | 36.02191 | 120.42637 | 15634 ft | 433 kts | 153° |
| 2026-04-14 00:58 | 35.99550 | 120.44353 | 16072 ft | 435 kts | 153° |
| 2026-04-14 00:58 | 35.96865 | 120.46096 | 16464 ft | 438 kts | 153° |
| 2026-04-14 00:58 | 35.94127 | 120.47874 | 16855 ft | 440 kts | 153° |
| 2026-04-14 00:58 | 35.91409 | 120.49640 | 17245 ft | 443 kts | 154° |
| 2026-04-14 00:59 | 35.88710 | 120.51390 | 17629 ft | 445 kts | 154° |
| 2026-04-14 00:59 | 35.85955 | 120.53170 | 18011 ft | 448 kts | 154° |
| 2026-04-14 00:59 | 35.83204 | 120.54943 | 18399 ft | 451 kts | 154° |
| 2026-04-14 00:59 | 35.80419 | 120.56738 | 18745 ft | 453 kts | 154° |
| 2026-04-14 01:00 | 35.77626 | 120.58546 | 19099 ft | 455 kts | 154° |
| 2026-04-14 01:00 | 35.74816 | 120.60367 | 19468 ft | 457 kts | 154° |
| 2026-04-14 01:00 | 35.72004 | 120.62213 | 19829 ft | 460 kts | 154° |
| 2026-04-14 01:00 | 35.69185 | 120.64105 | 20182 ft | 463 kts | 154° |
| 2026-04-14 01:01 | 35.66351 | 120.66022 | 20529 ft | 466 kts | 153° |
| 2026-04-14 01:01 | 35.63506 | 120.67949 | 20889 ft | 469 kts | 154° |
| 2026-04-14 01:01 | 35.60636 | 120.69889 | 21287 ft | 472 kts | 154° |
| 2026-04-14 01:01 | 35.57751 | 120.71842 | 21711 ft | 476 kts | 154° |
| 2026-04-14 01:02 | 35.54839 | 120.73809 | 22120 ft | 479 kts | 154° |
| 2026-04-14 01:02 | 35.51903 | 120.75787 | 22506 ft | 483 kts | 154° |
| 2026-04-14 01:02 | 35.48950 | 120.77760 | 22875 ft | 486 kts | 155° |
| 2026-04-14 01:02 | 35.45890 | 120.79539 | 23228 ft | 487 kts | 159° |
| 2026-04-14 01:03 | 35.42762 | 120.81161 | 23577 ft | 490 kts | 161° |
| 2026-04-14 01:03 | 35.39594 | 120.82731 | 23880 ft | 492 kts | 161° |
| 2026-04-14 01:03 | 35.36424 | 120.84286 | 24282 ft | 491 kts | 161° |
| 2026-04-14 01:03 | 35.33257 | 120.85840 | 24672 ft | 490 kts | 161° |
| 2026-04-14 01:04 | 35.30095 | 120.87400 | 25085 ft | 489 kts | 161° |
| 2026-04-14 01:04 | 35.26951 | 120.88953 | 25486 ft | 487 kts | 162° |
| 2026-04-14 01:04 | 35.23831 | 120.90496 | 25899 ft | 486 kts | 162° |
| 2026-04-14 01:04 | 35.20699 | 120.92046 | 26312 ft | 485 kts | 162° |
| 2026-04-14 01:05 | 35.17573 | 120.93597 | 26716 ft | 484 kts | 162° |
| 2026-04-14 01:05 | 35.14456 | 120.95143 | 27115 ft | 483 kts | 162° |
| 2026-04-14 01:05 | 35.11346 | 120.96686 | 27504 ft | 482 kts | 162° |
| 2026-04-14 01:05 | 35.08242 | 120.98230 | 27877 ft | 482 kts | 162° |
| 2026-04-14 01:06 | 35.05142 | 120.99772 | 28259 ft | 481 kts | 162° |
| 2026-04-14 01:06 | 35.02046 | 121.01312 | 28638 ft | 480 kts | 162° |
| 2026-04-14 01:06 | 34.98960 | 121.02849 | 29009 ft | 479 kts | 162° |
| 2026-04-14 01:06 | 34.95873 | 121.04382 | 29375 ft | 479 kts | 162° |
| 2026-04-14 01:07 | 34.92790 | 121.05907 | 29742 ft | 478 kts | 162° |
| 2026-04-14 01:07 | 34.89705 | 121.07434 | 30103 ft | 478 kts | 163° |
| 2026-04-14 01:07 | 34.86630 | 121.08955 | 30391 ft | 477 kts | 163° |
| 2026-04-14 01:07 | 34.83548 | 121.10474 | 30666 ft | 478 kts | 163° |
| 2026-04-14 01:08 | 34.80467 | 121.11994 | 30923 ft | 478 kts | 163° |
| 2026-04-14 01:08 | 34.77391 | 121.13510 | 31210 ft | 478 kts | 164° |
| 2026-04-14 01:08 | 34.74310 | 121.15025 | 31492 ft | 477 kts | 164° |
| 2026-04-14 01:08 | 34.71230 | 121.16543 | 31773 ft | 477 kts | 164° |
| 2026-04-14 01:09 | 34.68157 | 121.18062 | 32051 ft | 477 kts | 164° |
| 2026-04-14 01:09 | 34.65089 | 121.19578 | 32329 ft | 476 kts | 165° |
| 2026-04-14 01:09 | 34.62058 | 121.21073 | 32591 ft | 476 kts | 165° |
| 2026-04-14 01:09 | 34.58991 | 121.22577 | 32851 ft | 475 kts | 165° |
| 2026-04-14 01:10 | 34.55924 | 121.24079 | 33093 ft | 475 kts | 165° |
| 2026-04-14 01:10 | 34.49812 | 121.27067 | 33145 ft | 473 kts | 166° |
| 2026-04-14 01:11 | 34.43756 | 121.30033 | 33124 ft | 473 kts | 166° |
| 2026-04-14 01:11 | 34.37617 | 121.33038 | 33123 ft | 473 kts | 166° |
| 2026-04-14 01:12 | 34.31524 | 121.36006 | 33123 ft | 473 kts | 166° |
| 2026-04-14 01:12 | 34.25454 | 121.38963 | 33121 ft | 473 kts | 166° |
| 2026-04-14 01:13 | 34.19351 | 121.41934 | 33121 ft | 473 kts | 166° |
| 2026-04-14 01:13 | 34.13209 | 121.44911 | 33118 ft | 473 kts | 166° |
| 2026-04-14 01:14 | 34.07147 | 121.47847 | 33118 ft | 473 kts | 167° |
| 2026-04-14 01:14 | 34.01061 | 121.50795 | 33116 ft | 473 kts | 167° |
| 2026-04-14 01:15 | 33.94952 | 121.53744 | 33116 ft | 473 kts | 167° |
| 2026-04-14 01:15 | 33.88848 | 121.56678 | 33113 ft | 473 kts | 167° |
| 2026-04-14 01:16 | 33.82745 | 121.59628 | 33118 ft | 472 kts | 168° |
| 2026-04-14 01:16 | 33.76636 | 121.62561 | 33122 ft | 472 kts | 168° |
| 2026-04-14 01:18 | 33.52251 | 121.74467 | 33113 ft | 473 kts | 168° |
| 2026-04-14 01:19 | 33.46159 | 121.77453 | 33112 ft | 473 kts | 168° |
| 2026-04-14 01:19 | 33.41163 | 121.79889 | 33110 ft | 473 kts | 168° |
| 2026-04-14 01:20 | 33.35016 | 121.82892 | 33109 ft | 473 kts | 169° |
| 2026-04-14 01:20 | 33.28915 | 121.85864 | 33107 ft | 473 kts | 169° |
| 2026-04-14 01:21 | 33.22814 | 121.88830 | 33106 ft | 473 kts | 169° |
| 2026-04-14 01:21 | 33.16713 | 121.91789 | 33103 ft | 473 kts | 169° |
| 2026-04-14 01:22 | 33.10614 | 121.94739 | 33102 ft | 473 kts | 169° |
| 2026-04-14 01:22 | 33.04508 | 121.97690 | 33098 ft | 473 kts | 169° |
| 2026-04-14 01:23 | 32.98397 | 122.00631 | 33106 ft | 473 kts | 169° |
| 2026-04-14 01:23 | 32.92290 | 122.03575 | 33094 ft | 474 kts | 169° |
| 2026-04-14 01:24 | 32.86180 | 122.06518 | 33088 ft | 474 kts | 170° |
| 2026-04-14 01:24 | 32.80091 | 122.09445 | 33089 ft | 474 kts | 170° |
| 2026-04-14 01:25 | 32.73982 | 122.12376 | 33095 ft | 474 kts | 170° |
| 2026-04-14 01:25 | 32.67865 | 122.15300 | 33093 ft | 474 kts | 170° |
| 2026-04-14 01:26 | 32.61751 | 122.18227 | 33086 ft | 474 kts | 170° |
| 2026-04-14 01:26 | 32.55644 | 122.21149 | 33090 ft | 474 kts | 171° |
| 2026-04-14 01:27 | 32.49530 | 122.24067 | 33092 ft | 474 kts | 171° |
| 2026-04-14 01:27 | 32.43418 | 122.26978 | 33091 ft | 473 kts | 171° |
| 2026-04-14 01:28 | 32.37308 | 122.29880 | 33086 ft | 473 kts | 171° |
| 2026-04-14 01:28 | 32.31234 | 122.32760 | 33089 ft | 473 kts | 171° |
| 2026-04-14 01:29 | 32.25128 | 122.35655 | 33085 ft | 473 kts | 171° |
| 2026-04-14 01:29 | 32.19037 | 122.38537 | 33083 ft | 473 kts | 171° |
| 2026-04-14 01:30 | 32.12933 | 122.41419 | 33078 ft | 473 kts | 171° |
| 2026-04-14 01:30 | 32.06825 | 122.44306 | 33083 ft | 473 kts | 171° |
| 2026-04-14 01:31 | 32.00718 | 122.47178 | 33091 ft | 473 kts | 171° |
| 2026-04-14 01:31 | 31.94614 | 122.50048 | 33082 ft | 472 kts | 171° |
| 2026-04-14 01:32 | 31.88514 | 122.52910 | 33078 ft | 472 kts | 171° |
| 2026-04-14 01:32 | 31.82407 | 122.55782 | 33080 ft | 472 kts | 171° |
| 2026-04-14 01:33 | 31.76299 | 122.58633 | 33076 ft | 472 kts | 171° |
| 2026-04-14 01:33 | 31.70150 | 122.60727 | 33072 ft | 444 kts | 187° |
| 2026-04-14 01:33 | 31.67134 | 122.60770 | 33073 ft | 426 kts | 197° |
| 2026-04-14 01:34 | 31.64269 | 122.60203 | 33074 ft | 410 kts | 206° |
| 2026-04-14 01:34 | 31.61627 | 122.59105 | 33070 ft | 397 kts | 215° |
| 2026-04-14 01:34 | 31.59260 | 122.57582 | 33072 ft | 387 kts | 222° |
| 2026-04-14 01:35 | 31.54981 | 122.53843 | 33075 ft | 383 kts | 226° |
| 2026-04-14 01:35 | 31.50752 | 122.50031 | 33081 ft | 388 kts | 225° |
| 2026-04-14 01:36 | 31.46243 | 122.46402 | 33079 ft | 399 kts | 216° |
| 2026-04-14 01:36 | 31.43606 | 122.45207 | 33084 ft | 415 kts | 206° |
| 2026-04-14 01:36 | 31.40748 | 122.44626 | 33081 ft | 431 kts | 196° |
| 2026-04-14 01:37 | 31.34652 | 122.44412 | 33078 ft | 437 kts | 193° |
| 2026-04-14 01:37 | 31.28590 | 122.44171 | 33074 ft | 435 kts | 194° |
| 2026-04-14 01:38 | 31.19573 | 122.43664 | 33074 ft | 431 kts | 195° |
| 2026-04-14 01:38 | 31.13607 | 122.43324 | 33074 ft | 432 kts | 195° |
| 2026-04-14 01:39 | 31.07603 | 122.42987 | 33074 ft | 432 kts | 194° |
| 2026-04-14 01:39 | 31.01585 | 122.42650 | 33072 ft | 433 kts | 194° |
| 2026-04-14 01:40 | 30.95608 | 122.42313 | 33078 ft | 433 kts | 194° |
| 2026-04-14 01:40 | 30.89587 | 122.41968 | 33074 ft | 434 kts | 194° |
| 2026-04-14 01:41 | 30.83556 | 122.41626 | 33073 ft | 434 kts | 194° |
| 2026-04-14 01:41 | 30.77517 | 122.41282 | 33073 ft | 435 kts | 194° |
| 2026-04-14 01:42 | 30.71471 | 122.40940 | 33070 ft | 435 kts | 194° |
| 2026-04-14 01:42 | 30.65420 | 122.40598 | 33066 ft | 435 kts | 194° |
| 2026-04-14 01:43 | 30.59368 | 122.40256 | 33066 ft | 436 kts | 194° |
| 2026-04-14 01:43 | 30.53312 | 122.39927 | 33070 ft | 436 kts | 194° |
| 2026-04-14 01:44 | 30.47236 | 122.39606 | 33352 ft | 437 kts | 194° |
| 2026-04-14 01:44 | 30.44202 | 122.39447 | 33579 ft | 437 kts | 194° |
| 2026-04-14 01:44 | 30.41163 | 122.39287 | 33766 ft | 437 kts | 194° |
| 2026-04-14 01:45 | 30.38124 | 122.39126 | 33963 ft | 436 kts | 194° |
| 2026-04-14 01:45 | 30.35093 | 122.38966 | 34086 ft | 436 kts | 194° |
| 2026-04-14 01:45 | 30.29046 | 122.38647 | 34086 ft | 435 kts | 193° |
| 2026-04-14 01:46 | 30.22997 | 122.38323 | 34074 ft | 435 kts | 194° |
| 2026-04-14 01:46 | 30.16958 | 122.37941 | 34065 ft | 435 kts | 194° |
| 2026-04-14 01:47 | 30.10915 | 122.37555 | 34059 ft | 435 kts | 194° |
| 2026-04-14 01:47 | 30.04858 | 122.37182 | 34060 ft | 436 kts | 194° |
| 2026-04-14 01:48 | 29.98789 | 122.36800 | 34060 ft | 437 kts | 193° |
| 2026-04-14 01:48 | 29.92682 | 122.36594 | 34058 ft | 448 kts | 186° |
| 2026-04-14 01:49 | 29.89552 | 122.37120 | 34059 ft | 459 kts | 180° |
| 2026-04-14 01:49 | 29.86420 | 122.37889 | 34059 ft | 462 kts | 178° |
| 2026-04-14 01:49 | 29.80143 | 122.39493 | 34051 ft | 461 kts | 179° |
| 2026-04-14 01:50 | 29.73914 | 122.40972 | 34059 ft | 458 kts | 179° |
| 2026-04-14 01:50 | 29.67658 | 122.42419 | 34059 ft | 458 kts | 179° |
| 2026-04-14 01:51 | 29.61403 | 122.43869 | 34060 ft | 459 kts | 179° |
| 2026-04-14 01:51 | 29.55143 | 122.45322 | 34058 ft | 459 kts | 179° |
| 2026-04-14 01:52 | 29.48877 | 122.46779 | 34060 ft | 459 kts | 179° |
| 2026-04-14 01:52 | 29.42615 | 122.48224 | 34061 ft | 459 kts | 178° |
| 2026-04-14 01:53 | 29.36350 | 122.49670 | 34060 ft | 459 kts | 178° |
| 2026-04-14 01:53 | 29.30087 | 122.51115 | 34060 ft | 459 kts | 178° |
| 2026-04-14 01:54 | 29.23828 | 122.52476 | 34057 ft | 452 kts | 183° |
| 2026-04-14 01:54 | 29.20728 | 122.52514 | 34058 ft | 438 kts | 194° |
| 2026-04-14 01:54 | 29.17789 | 122.51861 | 34058 ft | 425 kts | 205° |
| 2026-04-14 01:55 | 29.12556 | 122.49018 | 34060 ft | 415 kts | 216° |
| 2026-04-14 01:55 | 29.07482 | 122.45829 | 34060 ft | 417 kts | 215° |
| 2026-04-14 01:56 | 29.02329 | 122.42764 | 34060 ft | 418 kts | 214° |
| 2026-04-14 01:56 | 28.97150 | 122.39727 | 34057 ft | 418 kts | 214° |
| 2026-04-14 01:57 | 28.91964 | 122.36690 | 34059 ft | 419 kts | 213° |
| 2026-04-14 01:57 | 28.86782 | 122.33643 | 34062 ft | 419 kts | 213° |
| 2026-04-14 01:58 | 28.81602 | 122.30592 | 34060 ft | 419 kts | 213° |
| 2026-04-14 01:58 | 28.76408 | 122.27558 | 34060 ft | 420 kts | 213° |
| 2026-04-14 01:59 | 28.71206 | 122.24520 | 34059 ft | 420 kts | 213° |
| 2026-04-14 01:59 | 28.66004 | 122.21478 | 34069 ft | 420 kts | 213° |
| 2026-04-14 02:00 | 28.60835 | 122.18463 | 34058 ft | 420 kts | 213° |
| 2026-04-14 02:00 | 28.55632 | 122.15431 | 34057 ft | 421 kts | 213° |
| 2026-04-14 02:01 | 28.50419 | 122.12392 | 34064 ft | 421 kts | 213° |
| 2026-04-14 02:01 | 28.45210 | 122.09362 | 34059 ft | 421 kts | 213° |
| 2026-04-14 02:02 | 28.39994 | 122.06329 | 34066 ft | 421 kts | 213° |
| 2026-04-14 02:02 | 28.34783 | 122.03304 | 34065 ft | 421 kts | 213° |
| 2026-04-14 02:03 | 28.29562 | 122.00279 | 34060 ft | 421 kts | 213° |
| 2026-04-14 02:03 | 28.24350 | 121.97259 | 34057 ft | 420 kts | 213° |
| 2026-04-14 02:04 | 28.19139 | 121.94247 | 34062 ft | 420 kts | 213° |
| 2026-04-14 02:04 | 28.13926 | 121.91234 | 34067 ft | 420 kts | 213° |
| 2026-04-14 02:05 | 28.08719 | 121.88227 | 34058 ft | 420 kts | 213° |
| 2026-04-14 02:05 | 28.04384 | 121.85726 | 34064 ft | 421 kts | 213° |
| 2026-04-14 02:06 | 27.99176 | 121.82692 | 34061 ft | 420 kts | 214° |
| 2026-04-14 02:06 | 27.94039 | 121.79527 | 34057 ft | 421 kts | 215° |
| 2026-04-14 02:07 | 27.88901 | 121.76349 | 34059 ft | 421 kts | 215° |
| 2026-04-14 02:07 | 27.83759 | 121.73172 | 34059 ft | 421 kts | 215° |
| 2026-04-14 02:08 | 27.78616 | 121.69994 | 34061 ft | 421 kts | 215° |
| 2026-04-14 02:08 | 27.73472 | 121.66822 | 34060 ft | 421 kts | 214° |
| 2026-04-14 02:09 | 27.68326 | 121.63653 | 34059 ft | 422 kts | 214° |
| 2026-04-14 02:09 | 27.63179 | 121.60485 | 34059 ft | 421 kts | 214° |
| 2026-04-14 02:10 | 27.58028 | 121.57317 | 34056 ft | 422 kts | 214° |
| 2026-04-14 02:10 | 27.52871 | 121.54161 | 34057 ft | 422 kts | 214° |
| 2026-04-14 02:11 | 27.47703 | 121.51008 | 34059 ft | 422 kts | 214° |
| 2026-04-14 02:11 | 27.42537 | 121.47857 | 34065 ft | 422 kts | 214° |
| 2026-04-14 02:12 | 27.37364 | 121.44705 | 34061 ft | 423 kts | 214° |
| 2026-04-14 02:12 | 27.32188 | 121.41556 | 34057 ft | 423 kts | 214° |
| 2026-04-14 02:13 | 27.27008 | 121.38406 | 34059 ft | 423 kts | 214° |
| 2026-04-14 02:13 | 27.21863 | 121.35281 | 34063 ft | 423 kts | 214° |
| 2026-04-14 02:14 | 27.16681 | 121.32137 | 34061 ft | 423 kts | 214° |
| 2026-04-14 02:14 | 27.11511 | 121.29002 | 34052 ft | 424 kts | 214° |
| 2026-04-14 02:15 | 27.06325 | 121.25861 | 34057 ft | 424 kts | 214° |
| 2026-04-14 02:15 | 27.01121 | 121.22713 | 34057 ft | 425 kts | 214° |
| 2026-04-14 02:16 | 26.95910 | 121.19564 | 34061 ft | 426 kts | 214° |
| 2026-04-14 02:16 | 26.90691 | 121.16415 | 34063 ft | 426 kts | 214° |
| 2026-04-14 02:17 | 26.85465 | 121.13262 | 34061 ft | 427 kts | 214° |
| 2026-04-14 02:17 | 26.80235 | 121.10111 | 34062 ft | 427 kts | 214° |
| 2026-04-14 02:18 | 26.74997 | 121.06956 | 34062 ft | 428 kts | 214° |
| 2026-04-14 02:18 | 26.69759 | 121.03802 | 34060 ft | 428 kts | 214° |
| 2026-04-14 02:19 | 26.64508 | 121.00639 | 34061 ft | 429 kts | 214° |
| 2026-04-14 02:19 | 26.59257 | 120.97483 | 34058 ft | 429 kts | 214° |
| 2026-04-14 02:20 | 26.54002 | 120.94325 | 34063 ft | 429 kts | 214° |
| 2026-04-14 02:20 | 26.48736 | 120.91164 | 34056 ft | 429 kts | 214° |
| 2026-04-14 02:21 | 26.43471 | 120.88007 | 34058 ft | 430 kts | 213° |
| 2026-04-14 02:21 | 26.38206 | 120.84854 | 34055 ft | 430 kts | 213° |
| 2026-04-14 02:22 | 26.32972 | 120.81720 | 34055 ft | 430 kts | 213° |
| 2026-04-14 02:22 | 26.27693 | 120.78564 | 34058 ft | 431 kts | 213° |
| 2026-04-14 02:23 | 26.22403 | 120.75407 | 34059 ft | 431 kts | 213° |
| 2026-04-14 02:23 | 26.17116 | 120.72254 | 34056 ft | 431 kts | 213° |
| 2026-04-14 02:24 | 26.11824 | 120.69099 | 34056 ft | 431 kts | 213° |
| 2026-04-14 02:24 | 26.06529 | 120.65948 | 34054 ft | 432 kts | 213° |
| 2026-04-14 02:25 | 26.01227 | 120.62795 | 34052 ft | 432 kts | 213° |
| 2026-04-14 02:25 | 25.95928 | 120.59647 | 34062 ft | 432 kts | 213° |
| 2026-04-14 02:26 | 25.90619 | 120.56497 | 34050 ft | 432 kts | 213° |
| 2026-04-14 02:26 | 25.85314 | 120.53353 | 34060 ft | 432 kts | 213° |
| 2026-04-14 02:27 | 25.80001 | 120.50206 | 34054 ft | 433 kts | 213° |
| 2026-04-14 02:27 | 25.74686 | 120.47062 | 34054 ft | 433 kts | 213° |
| 2026-04-14 02:28 | 25.69362 | 120.43916 | 34058 ft | 433 kts | 213° |
| 2026-04-14 02:28 | 25.64041 | 120.40775 | 34056 ft | 433 kts | 213° |
| 2026-04-14 02:29 | 25.59039 | 120.37136 | 34051 ft | 429 kts | 220° |
| 2026-04-14 02:29 | 25.54272 | 120.33157 | 34050 ft | 429 kts | 221° |
| 2026-04-14 02:30 | 25.49512 | 120.29172 | 34058 ft | 430 kts | 221° |
| 2026-04-14 02:30 | 25.44763 | 120.25223 | 34063 ft | 430 kts | 220° |
| 2026-04-14 02:31 | 25.39970 | 120.21246 | 34055 ft | 430 kts | 220° |
| 2026-04-14 02:31 | 25.35174 | 120.17274 | 34057 ft | 430 kts | 220° |
| 2026-04-14 02:32 | 25.30381 | 120.13306 | 34057 ft | 431 kts | 220° |
| 2026-04-14 02:32 | 25.25582 | 120.09337 | 34060 ft | 431 kts | 220° |
| 2026-04-14 02:33 | 25.20775 | 120.05366 | 34059 ft | 431 kts | 220° |
| 2026-04-14 02:34 | 25.13557 | 119.99411 | 34063 ft | 432 kts | 220° |
| 2026-04-14 02:34 | 25.08756 | 119.95450 | 34066 ft | 432 kts | 220° |
| 2026-04-14 02:35 | 25.03935 | 119.91482 | 34063 ft | 433 kts | 220° |
| 2026-04-14 02:35 | 24.99259 | 119.87340 | 34064 ft | 429 kts | 229° |
| 2026-04-14 02:36 | 24.95392 | 119.82354 | 34067 ft | 428 kts | 233° |
| 2026-04-14 02:36 | 24.91576 | 119.77315 | 34067 ft | 428 kts | 232° |
| 2026-04-14 02:37 | 24.87723 | 119.72356 | 34072 ft | 429 kts | 231° |
| 2026-04-14 02:37 | 24.83832 | 119.67376 | 34070 ft | 429 kts | 231° |
| 2026-04-14 02:38 | 24.79935 | 119.62396 | 34070 ft | 429 kts | 231° |
| 2026-04-14 02:38 | 24.76040 | 119.57420 | 34068 ft | 430 kts | 231° |
| 2026-04-14 02:39 | 24.72138 | 119.52440 | 34063 ft | 430 kts | 231° |
| 2026-04-14 02:39 | 24.68232 | 119.47465 | 34073 ft | 430 kts | 231° |
| 2026-04-14 02:40 | 24.64327 | 119.42485 | 34069 ft | 430 kts | 231° |
| 2026-04-14 02:40 | 24.60421 | 119.37509 | 34065 ft | 430 kts | 231° |
| 2026-04-14 02:41 | 24.56506 | 119.32533 | 34071 ft | 431 kts | 231° |
| 2026-04-14 02:41 | 24.52579 | 119.27546 | 34078 ft | 431 kts | 231° |
| 2026-04-14 02:42 | 24.48656 | 119.22568 | 34073 ft | 431 kts | 231° |
| 2026-04-14 02:42 | 24.44723 | 119.17593 | 34073 ft | 432 kts | 231° |
| 2026-04-14 02:43 | 24.40783 | 119.12617 | 34075 ft | 432 kts | 231° |
| 2026-04-14 02:43 | 24.36842 | 119.07640 | 34076 ft | 432 kts | 231° |
| 2026-04-14 02:44 | 24.32909 | 119.02657 | 34077 ft | 432 kts | 231° |
| 2026-04-14 02:44 | 24.28963 | 118.97672 | 34076 ft | 433 kts | 231° |
| 2026-04-14 02:45 | 24.25015 | 118.92693 | 34074 ft | 433 kts | 231° |
| 2026-04-14 02:45 | 24.21059 | 118.87712 | 34075 ft | 433 kts | 231° |
| 2026-04-14 02:46 | 24.17125 | 118.82765 | 34079 ft | 434 kts | 231° |
| 2026-04-14 02:46 | 24.13160 | 118.77783 | 34078 ft | 434 kts | 231° |
| 2026-04-14 02:47 | 24.09195 | 118.72805 | 34076 ft | 434 kts | 231° |
| 2026-04-14 02:47 | 24.05222 | 118.67824 | 34086 ft | 434 kts | 231° |
| 2026-04-14 02:48 | 24.01252 | 118.62850 | 34085 ft | 434 kts | 231° |
| 2026-04-14 02:48 | 23.97276 | 118.57875 | 34086 ft | 434 kts | 231° |
| 2026-04-14 02:49 | 23.93299 | 118.52908 | 34083 ft | 435 kts | 231° |
| 2026-04-14 02:49 | 23.89315 | 118.47934 | 34089 ft | 435 kts | 231° |
| 2026-04-14 02:50 | 23.85331 | 118.42961 | 34089 ft | 435 kts | 230° |
| 2026-04-14 02:50 | 23.81314 | 118.38016 | 34087 ft | 435 kts | 230° |
| 2026-04-14 02:51 | 23.77286 | 118.33067 | 34087 ft | 436 kts | 230° |
| 2026-04-14 02:51 | 23.73262 | 118.28117 | 34085 ft | 436 kts | 230° |
| 2026-04-14 02:52 | 23.69235 | 118.23164 | 34085 ft | 436 kts | 230° |
| 2026-04-14 02:52 | 23.65229 | 118.18242 | 34093 ft | 437 kts | 230° |
| 2026-04-14 02:53 | 23.61194 | 118.13295 | 34097 ft | 437 kts | 230° |
| 2026-04-14 02:53 | 23.57148 | 118.08338 | 34093 ft | 437 kts | 230° |
| 2026-04-14 02:54 | 23.53762 | 118.04191 | 34100 ft | 438 kts | 230° |
| 2026-04-14 02:54 | 23.49739 | 117.99267 | 34096 ft | 438 kts | 230° |
| 2026-04-14 02:55 | 23.45653 | 117.94276 | 34093 ft | 438 kts | 230° |
| 2026-04-14 02:55 | 23.41596 | 117.89320 | 34098 ft | 439 kts | 230° |
| 2026-04-14 02:56 | 23.37526 | 117.84372 | 34093 ft | 439 kts | 230° |
| 2026-04-14 02:56 | 23.33483 | 117.79448 | 34092 ft | 439 kts | 230° |
| 2026-04-14 02:57 | 23.29415 | 117.74498 | 34092 ft | 438 kts | 230° |
| 2026-04-14 02:57 | 23.25354 | 117.69559 | 34099 ft | 438 kts | 230° |
| 2026-04-14 02:58 | 23.21288 | 117.64616 | 34098 ft | 439 kts | 230° |
| 2026-04-14 02:58 | 23.17212 | 117.59670 | 34098 ft | 439 kts | 230° |
| 2026-04-14 02:59 | 23.13139 | 117.54732 | 34099 ft | 439 kts | 230° |
| 2026-04-14 02:59 | 23.09065 | 117.49792 | 34101 ft | 439 kts | 230° |
| 2026-04-14 03:00 | 23.05029 | 117.44822 | 34096 ft | 439 kts | 231° |
| 2026-04-14 03:00 | 23.01013 | 117.39829 | 34101 ft | 439 kts | 231° |
| 2026-04-14 03:01 | 22.96991 | 117.34849 | 34100 ft | 439 kts | 231° |
| 2026-04-14 03:01 | 22.93041 | 117.29797 | 34100 ft | 439 kts | 234° |
| 2026-04-14 03:02 | 22.89428 | 117.24464 | 34097 ft | 439 kts | 236° |
| 2026-04-14 03:02 | 22.85852 | 117.19097 | 34092 ft | 439 kts | 235° |
| 2026-04-14 03:03 | 22.82265 | 117.13755 | 34092 ft | 439 kts | 235° |
| 2026-04-14 03:03 | 22.78663 | 117.08409 | 34100 ft | 439 kts | 235° |
| 2026-04-14 03:04 | 22.75060 | 117.03067 | 34101 ft | 438 kts | 236° |
| 2026-04-14 03:04 | 22.72230 | 116.97264 | 34102 ft | 437 kts | 249° |
| 2026-04-14 03:05 | 22.70091 | 116.91140 | 34100 ft | 437 kts | 249° |
| 2026-04-14 03:05 | 22.67886 | 116.85010 | 34094 ft | 437 kts | 249° |
| 2026-04-14 03:06 | 22.65633 | 116.78892 | 34100 ft | 437 kts | 249° |
| 2026-04-14 03:06 | 22.63374 | 116.72773 | 34100 ft | 437 kts | 249° |
| 2026-04-14 03:07 | 22.61115 | 116.66667 | 34104 ft | 437 kts | 249° |
| 2026-04-14 03:07 | 22.58856 | 116.60551 | 34102 ft | 438 kts | 249° |
| 2026-04-14 03:08 | 22.56594 | 116.54435 | 34101 ft | 437 kts | 248° |
| 2026-04-14 03:08 | 22.54328 | 116.48330 | 34097 ft | 437 kts | 249° |
| 2026-04-14 03:09 | 22.52063 | 116.42225 | 34096 ft | 437 kts | 248° |
| 2026-04-14 03:09 | 22.50141 | 116.37059 | 34089 ft | 437 kts | 248° |
| 2026-04-14 03:10 | 22.47870 | 116.30963 | 34089 ft | 437 kts | 248° |
| 2026-04-14 03:10 | 22.45592 | 116.24872 | 34092 ft | 437 kts | 248° |
| 2026-04-14 03:11 | 22.43308 | 116.18780 | 34096 ft | 437 kts | 248° |
| 2026-04-14 03:11 | 22.41100 | 116.12665 | 34090 ft | 437 kts | 252° |
| 2026-04-14 03:12 | 22.38858 | 116.06636 | 34087 ft | 437 kts | 242° |
| 2026-04-14 03:12 | 22.36258 | 116.00759 | 33808 ft | 431 kts | 250° |
| 2026-04-14 03:12 | 22.35246 | 115.97696 | 33493 ft | 433 kts | 250° |
| 2026-04-14 03:13 | 22.34206 | 115.94637 | 33221 ft | 435 kts | 249° |
| 2026-04-14 03:13 | 22.33118 | 115.91594 | 32873 ft | 433 kts | 249° |
| 2026-04-14 03:13 | 22.32060 | 115.88732 | 32285 ft | 432 kts | 248° |
| 2026-04-14 03:13 | 22.30937 | 115.85723 | 31537 ft | 432 kts | 249° |
| 2026-04-14 03:14 | 22.29970 | 115.82655 | 30759 ft | 432 kts | 255° |
| 2026-04-14 03:14 | 22.29507 | 115.79450 | 29984 ft | 433 kts | 265° |
| 2026-04-14 03:14 | 22.29411 | 115.76200 | 29073 ft | 435 kts | 268° |
| 2026-04-14 03:14 | 22.29388 | 115.72926 | 28215 ft | 437 kts | 269° |
| 2026-04-14 03:15 | 22.29357 | 115.69645 | 27393 ft | 438 kts | 268° |
| 2026-04-14 03:15 | 22.29299 | 115.66351 | 26519 ft | 440 kts | 268° |
| 2026-04-14 03:15 | 22.29224 | 115.63034 | 25613 ft | 443 kts | 268° |
| 2026-04-14 03:15 | 22.29137 | 115.59714 | 24775 ft | 442 kts | 268° |
| 2026-04-14 03:16 | 22.29048 | 115.56405 | 24019 ft | 439 kts | 268° |
| 2026-04-14 03:16 | 22.28960 | 115.53132 | 23322 ft | 435 kts | 268° |
| 2026-04-14 03:16 | 22.28867 | 115.49868 | 22557 ft | 433 kts | 268° |
| 2026-04-14 03:16 | 22.28777 | 115.46643 | 22061 ft | 427 kts | 268° |
| 2026-04-14 03:17 | 22.28686 | 115.43451 | 21694 ft | 425 kts | 268° |
| 2026-04-14 03:17 | 22.28503 | 115.37103 | 20767 ft | 415 kts | 268° |
| 2026-04-14 03:17 | 22.28414 | 115.34020 | 20182 ft | 408 kts | 268° |
| 2026-04-14 03:18 | 22.28325 | 115.30983 | 19612 ft | 402 kts | 267° |
| 2026-04-14 03:18 | 22.28233 | 115.27991 | 19059 ft | 396 kts | 267° |
| 2026-04-14 03:18 | 22.28142 | 115.25046 | 18517 ft | 391 kts | 267° |
| 2026-04-14 03:18 | 22.28052 | 115.22125 | 17871 ft | 387 kts | 267° |
| 2026-04-14 03:19 | 22.27959 | 115.19196 | 17244 ft | 399 kts | 267° |
| 2026-04-14 03:19 | 22.27869 | 115.16194 | 16696 ft | 399 kts | 267° |
| 2026-04-14 03:19 | 22.27782 | 115.13216 | 16187 ft | 396 kts | 267° |
| 2026-04-14 03:19 | 22.27689 | 115.10259 | 15690 ft | 392 kts | 267° |
| 2026-04-14 03:20 | 22.27596 | 115.07331 | 15197 ft | 389 kts | 267° |
| 2026-04-14 03:20 | 22.27504 | 115.04428 | 14747 ft | 386 kts | 267° |
| 2026-04-14 03:20 | 22.27413 | 115.01544 | 14349 ft | 383 kts | 267° |
| 2026-04-14 03:20 | 22.27510 | 114.98590 | 13972 ft | 402 kts | 276° |
| 2026-04-14 03:21 | 22.28028 | 114.95613 | 13571 ft | 402 kts | 281° |
| 2026-04-14 03:21 | 22.28685 | 114.92688 | 13144 ft | 401 kts | 283° |
| 2026-04-14 03:21 | 22.29383 | 114.89776 | 12711 ft | 400 kts | 283° |
| 2026-04-14 03:21 | 22.30085 | 114.86881 | 12289 ft | 398 kts | 283° |
| 2026-04-14 03:22 | 22.30784 | 114.83992 | 11874 ft | 397 kts | 283° |
| 2026-04-14 03:22 | 22.31476 | 114.81110 | 11460 ft | 396 kts | 283° |
| 2026-04-14 03:22 | 22.32159 | 114.78246 | 11057 ft | 390 kts | 283° |
| 2026-04-14 03:22 | 22.32819 | 114.75459 | 10627 ft | 374 kts | 283° |
| 2026-04-14 03:23 | 22.33441 | 114.72798 | 10222 ft | 357 kts | 283° |
| 2026-04-14 03:23 | 22.34025 | 114.70270 | 10027 ft | 337 kts | 283° |
| 2026-04-14 03:23 | 22.34567 | 114.67891 | 9928 ft | 316 kts | 283° |
| 2026-04-14 03:23 | 22.35071 | 114.65660 | 9792 ft | 298 kts | 283° |
| 2026-04-14 03:24 | 22.35547 | 114.63527 | 9529 ft | 286 kts | 283° |
| 2026-04-14 03:24 | 22.36006 | 114.61472 | 9155 ft | 279 kts | 283° |
| 2026-04-14 03:24 | 22.36430 | 114.59452 | 8709 ft | 275 kts | 282° |
| 2026-04-14 03:24 | 22.36856 | 114.57441 | 8303 ft | 274 kts | 282° |
| 2026-04-14 03:25 | 22.37287 | 114.55436 | 7950 ft | 274 kts | 282° |
| 2026-04-14 03:25 | 22.37721 | 114.53437 | 7602 ft | 274 kts | 282° |
| 2026-04-14 03:25 | 22.38161 | 114.51435 | 7244 ft | 274 kts | 282° |
| 2026-04-14 03:25 | 22.38597 | 114.49464 | 6895 ft | 273 kts | 282° |
| 2026-04-14 03:26 | 22.39044 | 114.47471 | 6545 ft | 272 kts | 282° |
| 2026-04-14 03:26 | 22.39497 | 114.45493 | 6184 ft | 270 kts | 282° |
| 2026-04-14 03:26 | 22.39951 | 114.43529 | 5819 ft | 269 kts | 282° |
| 2026-04-14 03:26 | 22.40403 | 114.41566 | 5453 ft | 268 kts | 282° |
| 2026-04-14 03:27 | 22.40853 | 114.39618 | 5093 ft | 267 kts | 282° |
| 2026-04-14 03:27 | 22.41235 | 114.37661 | 4726 ft | 265 kts | 275° |
| 2026-04-14 03:27 | 22.41285 | 114.35695 | 4505 ft | 257 kts | 266° |
| 2026-04-14 03:27 | 22.41225 | 114.33796 | 4482 ft | 253 kts | 266° |
| 2026-04-14 03:28 | 22.41172 | 114.31915 | 4488 ft | 248 kts | 266° |
| 2026-04-14 03:28 | 22.41136 | 114.30085 | 4482 ft | 243 kts | 266° |
| 2026-04-14 03:28 | 22.41109 | 114.28248 | 4496 ft | 244 kts | 267° |
| 2026-04-14 03:28 | 22.41082 | 114.26426 | 4499 ft | 242 kts | 264° |
| 2026-04-14 03:29 | 22.40811 | 114.24640 | 4496 ft | 242 kts | 253° |
| 2026-04-14 03:29 | 22.40272 | 114.22938 | 4474 ft | 236 kts | 247° |
| 2026-04-14 03:29 | 22.39733 | 114.21333 | 4478 ft | 220 kts | 249° |
| 2026-04-14 03:29 | 22.39246 | 114.19821 | 4462 ft | 208 kts | 249° |
| 2026-04-14 03:30 | 22.38776 | 114.18355 | 4441 ft | 208 kts | 249° |
| 2026-04-14 03:30 | 22.38304 | 114.16879 | 4292 ft | 208 kts | 249° |
| 2026-04-14 03:30 | 22.37830 | 114.15399 | 4157 ft | 209 kts | 249° |
| 2026-04-14 03:30 | 22.37363 | 114.13939 | 3898 ft | 203 kts | 249° |
| 2026-04-14 03:31 | 22.36906 | 114.12513 | 3635 ft | 199 kts | 249° |
| 2026-04-14 03:31 | 22.36455 | 114.11105 | 3368 ft | 197 kts | 249° |
| 2026-04-14 03:31 | 22.36013 | 114.09721 | 3098 ft | 193 kts | 248° |
| 2026-04-14 03:31 | 22.35589 | 114.08397 | 2826 ft | 179 kts | 248° |
| 2026-04-14 03:32 | 22.35192 | 114.07157 | 2620 ft | 172 kts | 248° |
| 2026-04-14 03:32 | 22.34803 | 114.05945 | 2405 ft | 170 kts | 248° |
| 2026-04-14 03:32 | 22.34416 | 114.04737 | 2175 ft | 170 kts | 248° |
| 2026-04-14 03:32 | 22.34027 | 114.03523 | 1981 ft | 172 kts | 247° |
| 2026-04-14 03:33 | 22.33635 | 114.02298 | 1753 ft | 173 kts | 247° |
| 2026-04-14 03:33 | 22.33245 | 114.01084 | 1518 ft | 170 kts | 248° |
| 2026-04-14 03:33 | 22.32861 | 113.99885 | 1282 ft | 163 kts | 248° |
| 2026-04-14 03:33 | 22.32520 | 113.98819 | 1055 ft | 144 kts | 246° |
| 2026-04-14 03:34 | 22.31893 | 113.96802 | 687 ft | 142 kts | 247° |
| 2026-04-14 03:34 | 22.31551 | 113.95760 | 515 ft | 151 kts | 247° |
| 2026-04-14 03:34 | 22.31203 | 113.94686 | 365 ft | 150 kts | 247° |
| 2026-04-14 03:35 | 22.30862 | 113.93648 | 148 ft | 146 kts | 249° |
| 2026-04-14 03:35 | 22.30528 | 113.92633 | 46 ft | 138 kts | 250° |
| 2026-04-14 03:35 | 22.30265 | 113.91791 | 42 ft | 94 kts | 251° |
| 2026-04-14 03:35 | 22.30113 | 113.91314 | 43 ft | 34 kts | 253° |
| 2026-04-14 03:36 | 22.30123 | 113.91114 | 43 ft | 12 kts | 281° |
| 2026-04-14 03:36 | 22.30138 | 113.91047 | 43 ft | 5 kts | 296° |
| 2026-04-14 03:36 | 22.30162 | 113.91030 | 42 ft | 0 kts | 347° |
| 2026-04-14 03:37 | 22.30165 | 113.91029 | 43 ft | 1 kts | 353° |
| 2026-04-14 03:37 | 22.30183 | 113.91032 | 43 ft | 4 kts | 21° |
| 2026-04-14 03:37 | 22.30210 | 113.91058 | 42 ft | 7 kts | 54° |
| 2026-04-14 03:37 | 22.30230 | 113.91112 | 42 ft | 9 kts | 72° |
| 2026-04-14 03:38 | 22.30252 | 113.91180 | 42 ft | 11 kts | 71° |
| 2026-04-14 03:38 | 22.30278 | 113.91264 | 42 ft | 13 kts | 71° |
| 2026-04-14 03:38 | 22.30299 | 113.91328 | 42 ft | 14 kts | 71° |
| 2026-04-14 03:38 | 22.30345 | 113.91471 | 42 ft | 16 kts | 71° |
| 2026-04-14 03:39 | 22.30385 | 113.91595 | 42 ft | 19 kts | 70° |
| 2026-04-14 03:39 | 22.30432 | 113.91739 | 43 ft | 22 kts | 71° |
| 2026-04-14 03:39 | 22.30465 | 113.91843 | 43 ft | 22 kts | 70° |
| 2026-04-14 03:39 | 22.30519 | 113.92008 | 43 ft | 24 kts | 71° |
| 2026-04-14 03:40 | 22.30575 | 113.92182 | 43 ft | 25 kts | 71° |
| 2026-04-14 03:40 | 22.30628 | 113.92341 | 41 ft | 13 kts | 69° |
| 2026-04-14 03:40 | 22.30709 | 113.92364 | 42 ft | 15 kts | 340° |
| 2026-04-14 03:40 | 22.30812 | 113.92324 | 42 ft | 17 kts | 340° |
| 2026-04-14 03:41 | 22.30934 | 113.92278 | 42 ft | 20 kts | 341° |
| 2026-04-14 03:41 | 22.31075 | 113.92225 | 42 ft | 23 kts | 340° |
| 2026-04-14 03:41 | 22.31233 | 113.92165 | 42 ft | 25 kts | 341° |
| 2026-04-14 03:41 | 22.31403 | 113.92101 | 42 ft | 27 kts | 341° |
| 2026-04-14 03:42 | 22.31547 | 113.92076 | 42 ft | 17 kts | 40° |
| 2026-04-14 03:42 | 22.31593 | 113.92203 | 42 ft | 19 kts | 71° |
| 2026-04-14 03:42 | 22.31638 | 113.92343 | 42 ft | 21 kts | 71° |
| 2026-04-14 03:42 | 22.31614 | 113.92492 | 40 ft | 22 kts | 116° |
| 2026-04-14 03:43 | 22.31548 | 113.92638 | 42 ft | 21 kts | 115° |
| 2026-04-14 03:43 | 22.31504 | 113.92736 | 42 ft | 11 kts | 115° |
| 2026-04-14 03:43 | 22.31490 | 113.92776 | 42 ft | 0 kts | 96° |
| 2026-04-14 03:44 | 22.31490 | 113.92777 | 42 ft | 1 kts | 90° |
| 2026-04-14 03:44 | 22.31493 | 113.92800 | 42 ft | 5 kts | 88° |
| 2026-04-14 03:44 | 22.31468 | 113.92840 | 42 ft | 8 kts | 158° |
| 2026-04-14 03:45 | 22.31423 | 113.92856 | 42 ft | 3 kts | 161° |
| 2026-04-14 03:45 | 22.31418 | 113.92857 | 42 ft | 0 kts | 161° |
| 2026-04-14 03:45 | 22.31409 | 113.92861 | 42 ft | 3 kts | 160° |
| 2026-04-14 03:46 | 22.31405 | 113.92863 | 42 ft | 0 kts | 160° |
| 2026-04-14 03:46 | 22.31404 | 113.92863 | 42 ft | 0 kts | 160° |